Richmond, California
Current Conditions -  °F | °C
As of 10:53 AM on Thursday 30 Oct 2014 (Local Time) from KOAK Reporting Station
Broken Clouds Broken Clouds  
Wind Chill: 66°   Ceiling: 20000
Heat Index: 66°   Visibility: 10mi
Dew Point: 56°   Wind: 5mph
Humidity: 70%   Direction: 200°SSW
Pressure: 29.94"   Gusts: NA
Location:  37.94°N, 122.34°W
Report Text: KOAK 301753Z 20004KT 10SM SCT180 BKN200 19/13 A2994 RMK AO2 SLP137 T01890133 10189 20128 50003
Loading
Personal Weather Stations






























Interactive Weather Map
Tropical Storm Tracking
New forecast layout! Learn more

10-Day Weather Forecast

Advertisements
Track Severe Weather on mobile